Bluff City, Tennessee
Current Conditions -  °F | °C
As of 10:53 PM on Sunday 23 Nov 2014 (Local Time) from KTRI Reporting Station
Broken Clouds Broken Clouds  
Wind Chill: 59°   Ceiling: 6500
Heat Index: 59°   Visibility: 10mi
Dew Point: 50°   Wind: 5mph
Humidity: 72%   Direction: 150°SSE
Pressure: 29.61"   Gusts: NA
Location:  36.47°N, 82.26°W
Report Text: KTRI 240353Z 15004KT 10SM BKN065 BKN085 15/10 A2961 RMK AO2 SLP014 T01500100
Loading
Personal Weather Stations






























Interactive Weather Map New forecast layout! Learn more

10-Day Weather Forecast

Advertisements
Track Severe Weather on mobile